Airfield :
LOGIN :

Register | Disclaimer

   EN    FR    IT 

 










Legend :    VFR   Marginal VFR   IFR   Intensive IFR   Very Intensive IFR
Visi :
Ceiling :
>= 8 km
>= 3000ft
5 to 8 km
1000 to 3000 ft
1500m to 5 km
500 to 1000 ft
800 to 1500m
200 to 500 ft
< 800m
< 200 ft
Symbols :   Thunderstorms  Fog  Heavy snow  Heavy precipitations  Wind > 20 kt
SIGMETs :     Misc.  Thunderstorms  Icing  Turbulence  Mountain Waves  Volcanic Ashes






- Airport Elevation : 465 ft
- IATA code : OMR


LROD - Oradea International

CURRENT METAR :
  • 160900Z 21013KT CAVOK 23/09 Q1016

EXPIRED METARs :
  • 160830Z 15002KT 080V230 CAVOK 23/11 Q1016
  • 160800Z 10004KT 070V130 CAVOK 19/11 Q1016
  • 160730Z 10005KT CAVOK 17/10 Q1016
  • 160700Z 10007KT CAVOK 15/10 Q1016
  • 160630Z 10006KT CAVOK 14/09 Q1016

TAF TAF LROD
Valid from the 16 at 09:00 until the 16 at 18:00 UTC


160800Z 1609/1618 10007KT CAVOK
BECMG 1609/1611 20010KT



MET'MAP, your aeronautical weather chart ! - Copyright ORBIFLY December 2007 - Disclaimer

ORBIFLY MET'MAP TEAM :

Programming & Development : Alexandra Zaïnal
Concept & Development : Baudouin d'Aumeries
Co-Development & Prog : Marc-Olivier Méhu
Technical & hardware support : Manuel Goepfert

Contact : metmap@orbifly.com




SOURCES & CREDITS :

   NOAA